sensor_id;sensor_type;location;lat;lon;timestamp;pressure;altitude;pressure_sealevel;temperature;humidity
19674;BME280;9986;50.610;7.230;2024-01-15T00:02:37;143268.64;;;1.96;100.00
19674;BME280;9986;50.610;7.230;2024-01-15T00:10:36;143256.20;;;1.91;100.00
19674;BME280;9986;50.610;7.230;2024-01-15T00:15:50;143274.91;;;1.98;100.00
19674;BME280;9986;50.610;7.230;2024-01-15T00:26:29;143281.13;;;2.01;100.00
19674;BME280;9986;50.610;7.230;2024-01-15T00:31:42;143282.41;;;2.01;100.00
19674;BME280;9986;50.610;7.230;2024-01-15T00:39:40;143274.91;;;1.98;100.00
19674;BME280;9986;50.610;7.230;2024-01-15T00:50:14;143211.31;;;1.73;100.00
19674;BME280;9986;50.610;7.230;2024-01-15T01:19:38;125279.71;;;1.05;100.00
19674;BME280;9986;50.610;7.230;2024-01-15T01:32:58;100123.52;;;1.02;100.00
19674;BME280;9986;50.610;7.230;2024-01-15T01:43:29;129305.13;;;1.10;100.00
19674;BME280;9986;50.610;7.230;2024-01-15T01:59:11;143064.31;;;1.14;100.00
19674;BME280;9986;50.610;7.230;2024-01-15T02:18:00;124106.55;;;1.04;100.00
19674;BME280;9986;50.610;7.230;2024-01-15T02:23:15;140522.02;;;1.02;100.00
19674;BME280;9986;50.610;7.230;2024-01-15T02:33:46;143120.39;;;1.37;100.00
19674;BME280;9986;50.610;7.230;2024-01-15T02:57:51;143119.11;;;1.36;100.00
19674;BME280;9986;50.610;7.230;2024-01-15T03:03:04;143119.11;;;1.36;100.00
19674;BME280;9986;50.610;7.230;2024-01-15T03:19:04;134562.89;;;1.38;100.00
19674;BME280;9986;50.610;7.230;2024-01-15T03:21:35;110975.92;;;1.27;100.00
19674;BME280;9986;50.610;7.230;2024-01-15T03:29:27;116314.39;;;1.30;100.00
19674;BME280;9986;50.610;7.230;2024-01-15T03:56:06;102796.03;;;1.11;100.00
19674;BME280;9986;50.610;7.230;2024-01-15T04:03:53;128454.98;;;1.04;100.00
19674;BME280;9986;50.610;7.230;2024-01-15T04:09:06;138530.69;;;1.01;100.00
19674;BME280;9986;50.610;7.230;2024-01-15T04:17:00;143034.44;;;1.02;100.00
19674;BME280;9986;50.610;7.230;2024-01-15T04:24:57;143021.97;;;0.97;100.00
19674;BME280;9986;50.610;7.230;2024-01-15T04:30:12;143021.97;;;0.97;100.00
19674;BME280;9986;50.610;7.230;2024-01-15T04:35:25;143002.06;;;0.90;100.00
19674;BME280;9986;50.610;7.230;2024-01-15T04:43:16;140283.78;;;0.92;100.00
19674;BME280;9986;50.610;7.230;2024-01-15T04:51:10;140411.59;;;0.96;100.00
19674;BME280;9986;50.610;7.230;2024-01-15T04:59:04;143039.42;;;1.04;100.00
19674;BME280;9986;50.610;7.230;2024-01-15T05:09:27;143020.75;;;0.97;100.00
19674;BME280;9986;50.610;7.230;2024-01-15T05:17:25;138647.17;;;0.95;100.00
19674;BME280;9986;50.610;7.230;2024-01-15T05:22:38;125263.31;;;0.98;100.00
19674;BME280;9986;50.610;7.230;2024-01-15T05:27:51;143024.45;;;0.98;100.00
19674;BME280;9986;50.610;7.230;2024-01-15T05:33:05;143036.94;;;1.03;100.00
19674;BME280;9986;50.610;7.230;2024-01-15T05:40:59;143031.94;;;1.01;100.00
19674;BME280;9986;50.610;7.230;2024-01-15T05:56:51;101763.81;;;0.91;100.00
19674;BME280;9986;50.610;7.230;2024-01-15T06:18:08;32403.78;;;0.74;100.00
19674;BME280;9986;50.610;7.230;2024-01-15T06:47:31;29149.10;;;0.67;100.00
19674;BME280;9986;50.610;7.230;2024-01-15T06:55:25;34350.23;;;0.65;100.00
19674;BME280;9986;50.610;7.230;2024-01-15T07:08:32;52632.82;;;0.78;100.00
19674;BME280;9986;50.610;7.230;2024-01-15T07:16:25;48871.04;;;0.77;100.00
19674;BME280;9986;50.610;7.230;2024-01-15T07:24:16;54434.45;;;0.79;100.00
19674;BME280;9986;50.610;7.230;2024-01-15T07:32:07;53780.20;;;0.80;100.00
19674;BME280;9986;50.610;7.230;2024-01-15T07:42:46;57692.48;;;0.88;100.00
19674;BME280;9986;50.610;7.230;2024-01-15T07:47:59;49846.73;;;0.71;100.00
19674;BME280;9986;50.610;7.230;2024-01-15T07:53:13;47722.90;;;0.72;100.00
19674;BME280;9986;50.610;7.230;2024-01-15T07:58:27;52473.00;;;0.82;100.00
19674;BME280;9986;50.610;7.230;2024-01-15T08:03:37;50504.75;;;0.76;100.00
19674;BME280;9986;50.610;7.230;2024-01-15T08:08:47;50503.82;;;0.75;100.00
19674;BME280;9986;50.610;7.230;2024-01-15T08:14:00;44297.47;;;0.76;100.00
19674;BME280;9986;50.610;7.230;2024-01-15T08:21:54;37284.77;;;0.72;100.00
19674;BME280;9986;50.610;7.230;2024-01-15T08:27:07;41363.07;;;0.78;100.00
19674;BME280;9986;50.610;7.230;2024-01-15T08:34:54;44958.15;;;0.85;100.00
19674;BME280;9986;50.610;7.230;2024-01-15T08:45:30;66257.53;;;0.93;100.00
19674;BME280;9986;50.610;7.230;2024-01-15T08:53:21;122085.92;;;0.96;100.00
19674;BME280;9986;50.610;7.230;2024-01-15T08:58:34;113235.02;;;0.91;100.00
19674;BME280;9986;50.610;7.230;2024-01-15T09:06:26;108119.36;;;1.13;100.00
19674;BME280;9986;50.610;7.230;2024-01-15T09:11:39;128484.11;;;1.17;100.00
19674;BME280;9986;50.610;7.230;2024-01-15T09:16:52;143107.91;;;1.32;100.00
19674;BME280;9986;50.610;7.230;2024-01-15T09:24:43;143109.13;;;1.32;100.00
19674;BME280;9986;50.610;7.230;2024-01-15T09:32:40;143175.19;;;1.59;100.00
19674;BME280;9986;50.610;7.230;2024-01-15T09:40:33;143186.41;;;1.63;100.00
19674;BME280;9986;50.610;7.230;2024-01-15T09:51:05;143186.41;;;1.63;100.00
19674;BME280;9986;50.610;7.230;2024-01-15T10:09:41;143136.59;;;1.43;100.00
19674;BME280;9986;50.610;7.230;2024-01-15T10:25:49;91707.91;;;1.26;100.00
19674;BME280;9986;50.610;7.230;2024-01-15T10:31:03;72378.95;;;1.21;100.00
19674;BME280;9986;50.610;7.230;2024-01-15T10:41:37;58093.33;;;1.32;100.00
19674;BME280;9986;50.610;7.230;2024-01-15T10:52:12;58582.80;;;1.30;100.00
19674;BME280;9986;50.610;7.230;2024-01-15T10:57:27;47599.09;;;1.17;100.00
19674;BME280;9986;50.610;7.230;2024-01-15T11:05:22;38139.62;;;1.29;100.00
19674;BME280;9986;50.610;7.230;2024-01-15T11:19:06;42714.66;;;1.37;100.00
19674;BME280;9986;50.610;7.230;2024-01-15T11:30:09;44022.44;;;1.39;100.00
19674;BME280;9986;50.610;7.230;2024-01-15T11:38:00;33244.63;;;1.17;100.00
19674;BME280;9986;50.610;7.230;2024-01-15T11:43:19;28046.65;;;1.30;100.00
19674;BME280;9986;50.610;7.230;2024-01-15T12:02:12;30326.69;;;1.36;100.00
19674;BME280;9986;50.610;7.230;2024-01-15T12:07:26;28365.47;;;1.18;100.00
19674;BME280;9986;50.610;7.230;2024-01-15T12:18:12;28870.92;;;1.50;100.00
19674;BME280;9986;50.610;7.230;2024-01-15T12:28:51;36218.26;;;1.80;100.00
19674;BME280;9986;50.610;7.230;2024-01-15T12:34:04;55013.95;;;1.68;100.00
19674;BME280;9986;50.610;7.230;2024-01-15T12:50:07;126954.88;;;1.82;100.00
19674;BME280;9986;50.610;7.230;2024-01-15T13:00:43;131831.52;;;1.89;100.00
19674;BME280;9986;50.610;7.230;2024-01-15T13:11:49;143286.13;;;2.03;100.00
19674;BME280;9986;50.610;7.230;2024-01-15T13:17:07;143306.05;;;2.11;100.00
19674;BME280;9986;50.610;7.230;2024-01-15T13:22:18;143324.75;;;2.18;100.00
19674;BME280;9986;50.610;7.230;2024-01-15T13:27:32;143319.75;;;2.16;100.00
19674;BME280;9986;50.610;7.230;2024-01-15T13:41:31;143311.05;;;2.13;100.00
19674;BME280;9986;50.610;7.230;2024-01-15T13:46:56;143296.11;;;2.07;100.00
19674;BME280;9986;50.610;7.230;2024-01-15T13:54:52;143221.30;;;1.77;100.00
19674;BME280;9986;50.610;7.230;2024-01-15T14:00:23;143231.28;;;1.81;100.00
19674;BME280;9986;50.610;7.230;2024-01-15T14:08:44;143163.98;;;1.54;100.00
19674;BME280;9986;50.610;7.230;2024-01-15T14:14:02;143111.02;;;1.48;100.00
19674;BME280;9986;50.610;7.230;2024-01-15T14:19:23;129430.30;;;1.66;100.00
19674;BME280;9986;50.610;7.230;2024-01-15T14:29:59;119855.60;;;1.47;100.00
19674;BME280;9986;50.610;7.230;2024-01-15T14:40:38;99027.13;;;1.40;100.00
19674;BME280;9986;50.610;7.230;2024-01-15T14:45:51;83284.91;;;1.35;100.00
19674;BME280;9986;50.610;7.230;2024-01-15T14:51:04;80316.84;;;1.38;100.00
19674;BME280;9986;50.610;7.230;2024-01-15T14:56:18;86933.60;;;1.42;100.00
19674;BME280;9986;50.610;7.230;2024-01-15T15:01:31;91734.55;;;1.42;100.00
19674;BME280;9986;50.610;7.230;2024-01-15T15:12:01;103174.38;;;1.37;100.00
19674;BME280;9986;50.610;7.230;2024-01-15T15:19:55;98524.84;;;1.37;100.00
19674;BME280;9986;50.610;7.230;2024-01-15T15:35:51;65477.01;;;1.28;100.00
19674;BME280;9986;50.610;7.230;2024-01-15T15:49:15;61531.79;;;1.25;100.00
19674;BME280;9986;50.610;7.230;2024-01-15T15:54:24;67617.45;;;1.30;100.00
19674;BME280;9986;50.610;7.230;2024-01-15T16:10:24;54313.45;;;1.22;100.00
19674;BME280;9986;50.610;7.230;2024-01-15T16:21:02;63662.08;;;1.21;100.00
19674;BME280;9986;50.610;7.230;2024-01-15T16:37:12;87906.22;;;1.29;100.00
19674;BME280;9986;50.610;7.230;2024-01-15T16:45:07;98015.76;;;1.31;100.00
19674;BME280;9986;50.610;7.230;2024-01-15T16:50:20;104321.48;;;1.28;100.00
19674;BME280;9986;50.610;7.230;2024-01-15T16:58:14;115794.79;;;1.20;100.00
19674;BME280;9986;50.610;7.230;2024-01-15T17:08:49;129001.91;;;1.24;100.00
19674;BME280;9986;50.610;7.230;2024-01-15T17:22:01;137869.05;;;1.18;100.00
19674;BME280;9986;50.610;7.230;2024-01-15T17:29:57;143086.72;;;1.23;100.00
19674;BME280;9986;50.610;7.230;2024-01-15T17:35:11;143081.73;;;1.21;100.00
19674;BME280;9986;50.610;7.230;2024-01-15T17:43:08;143054.34;;;1.10;100.00
19674;BME280;9986;50.610;7.230;2024-01-15T17:50:58;143064.31;;;1.14;100.00
19674;BME280;9986;50.610;7.230;2024-01-15T18:01:32;143059.33;;;1.12;100.00
19674;BME280;9986;50.610;7.230;2024-01-15T18:06:47;143034.44;;;1.02;100.00
19674;BME280;9986;50.610;7.230;2024-01-15T18:22:52;143024.45;;;0.98;100.00
19674;BME280;9986;50.610;7.230;2024-01-15T18:33:36;143035.66;;;1.03;100.00
19674;BME280;9986;50.610;7.230;2024-01-15T18:49:26;143070.53;;;1.17;100.00
19674;BME280;9986;50.610;7.230;2024-01-15T19:02:39;143084.23;;;1.22;100.00
19674;BME280;9986;50.610;7.230;2024-01-15T19:10:33;143104.19;;;1.30;100.00
19674;BME280;9986;50.610;7.230;2024-01-15T19:21:08;143080.52;;;1.21;100.00
19674;BME280;9986;50.610;7.230;2024-01-15T19:36:56;143079.25;;;1.20;100.00
19674;BME280;9986;50.610;7.230;2024-01-15T19:44:49;143073.03;;;1.18;100.00
19674;BME280;9986;50.610;7.230;2024-01-15T19:50:05;143064.31;;;1.14;100.00
19674;BME280;9986;50.610;7.230;2024-01-15T20:03:15;143059.33;;;1.12;100.00
19674;BME280;9986;50.610;7.230;2024-01-15T20:11:05;143074.25;;;1.18;100.00
19674;BME280;9986;50.610;7.230;2024-01-15T20:16:20;143054.34;;;1.10;100.00
19674;BME280;9986;50.610;7.230;2024-01-15T20:21:36;143055.63;;;1.11;100.00
19674;BME280;9986;50.610;7.230;2024-01-15T20:26:52;143044.36;;;1.06;100.00
19674;BME280;9986;50.610;7.230;2024-01-15T20:32:07;143041.87;;;1.05;100.00
19674;BME280;9986;50.610;7.230;2024-01-15T20:48:15;143046.86;;;1.07;100.00
19674;BME280;9986;50.610;7.230;2024-01-15T20:56:11;143031.94;;;1.01;100.00
19674;BME280;9986;50.610;7.230;2024-01-15T21:01:24;143044.36;;;1.06;100.00
19674;BME280;9986;50.610;7.230;2024-01-15T21:11:53;143054.34;;;1.10;100.00
19674;BME280;9986;50.610;7.230;2024-01-15T21:19:44;143056.84;;;1.11;100.00
19674;BME280;9986;50.610;7.230;2024-01-15T21:30:25;143064.31;;;1.14;100.00
19674;BME280;9986;50.610;7.230;2024-01-15T21:35:38;143049.36;;;1.08;100.00
19674;BME280;9986;50.610;7.230;2024-01-15T21:40:51;143065.55;;;1.15;100.00
19674;BME280;9986;50.610;7.230;2024-01-15T21:46:08;143068.03;;;1.16;100.00
19674;BME280;9986;50.610;7.230;2024-01-15T21:51:18;143075.53;;;1.19;100.00
19674;BME280;9986;50.610;7.230;2024-01-15T21:56:31;143074.25;;;1.18;100.00
19674;BME280;9986;50.610;7.230;2024-01-15T22:01:44;143075.53;;;1.19;100.00
19674;BME280;9986;50.610;7.230;2024-01-15T22:06:59;143064.31;;;1.14;100.00
19674;BME280;9986;50.610;7.230;2024-01-15T22:14:53;143074.25;;;1.18;100.00
19674;BME280;9986;50.610;7.230;2024-01-15T22:22:49;143085.50;;;1.23;100.00
19674;BME280;9986;50.610;7.230;2024-01-15T22:28:03;143075.53;;;1.19;100.00
19674;BME280;9986;50.610;7.230;2024-01-15T22:33:18;143075.53;;;1.19;100.00
19674;BME280;9986;50.610;7.230;2024-01-15T22:41:08;143089.22;;;1.24;100.00
19674;BME280;9986;50.610;7.230;2024-01-15T22:48:59;143119.11;;;1.36;100.00
19674;BME280;9986;50.610;7.230;2024-01-15T22:56:56;143124.11;;;1.38;100.00
19674;BME280;9986;50.610;7.230;2024-01-15T23:04:50;143131.59;;;1.41;100.00
19674;BME280;9986;50.610;7.230;2024-01-15T23:10:05;143136.59;;;1.43;100.00
19674;BME280;9986;50.610;7.230;2024-01-15T23:15:20;143147.80;;;1.48;100.00
19674;BME280;9986;50.610;7.230;2024-01-15T23:23:15;143149.02;;;1.48;100.00
